sensor_id;sensor_type;location;lat;lon;timestamp;P1;durP1;ratioP1;P2;durP2;ratioP2
62151;SDS011;48139;47.474;19.034;2023-12-04T04:47:22;14.73;;;6.50;;
62151;SDS011;48139;47.474;19.034;2023-12-04T04:50:25;15.10;;;7.78;;
62151;SDS011;48139;47.474;19.034;2023-12-04T04:53:28;18.63;;;9.80;;
62151;SDS011;48139;47.474;19.034;2023-12-04T04:56:31;17.15;;;9.15;;
62151;SDS011;48139;47.474;19.034;2023-12-04T04:59:35;21.30;;;9.25;;
62151;SDS011;48139;47.474;19.034;2023-12-04T05:02:38;16.15;;;10.20;;
62151;SDS011;48139;47.474;19.034;2023-12-04T05:05:41;19.03;;;9.37;;
62151;SDS011;48139;47.474;19.034;2023-12-04T05:08:44;18.75;;;10.95;;
62151;SDS011;48139;47.474;19.034;2023-12-04T05:11:47;23.38;;;10.98;;
62151;SDS011;48139;47.474;19.034;2023-12-04T05:14:50;18.98;;;9.40;;
62151;SDS011;48139;47.474;19.034;2023-12-04T05:17:53;17.45;;;9.07;;
62151;SDS011;48139;47.474;19.034;2023-12-04T05:23:58;13.82;;;7.75;;
62151;SDS011;48139;47.474;19.034;2023-12-04T05:27:01;18.02;;;10.25;;
62151;SDS011;48139;47.474;19.034;2023-12-04T05:33:08;16.65;;;9.07;;
62151;SDS011;48139;47.474;19.034;2023-12-04T05:36:11;14.63;;;9.35;;
62151;SDS011;48139;47.474;19.034;2023-12-04T05:39:14;16.33;;;10.20;;
62151;SDS011;48139;47.474;19.034;2023-12-04T05:42:16;19.20;;;10.55;;
62151;SDS011;48139;47.474;19.034;2023-12-04T05:45:19;19.65;;;12.63;;
62151;SDS011;48139;47.474;19.034;2023-12-04T05:48:22;18.93;;;10.87;;
62151;SDS011;48139;47.474;19.034;2023-12-04T05:51:25;17.92;;;9.80;;
62151;SDS011;48139;47.474;19.034;2023-12-04T05:54:29;16.48;;;10.65;;
62151;SDS011;48139;47.474;19.034;2023-12-04T05:57:32;22.08;;;10.77;;
62151;SDS011;48139;47.474;19.034;2023-12-04T06:00:35;14.50;;;8.73;;
62151;SDS011;48139;47.474;19.034;2023-12-04T06:03:38;20.42;;;12.75;;
62151;SDS011;48139;47.474;19.034;2023-12-04T06:06:41;17.15;;;10.57;;
62151;SDS011;48139;47.474;19.034;2023-12-04T06:09:43;17.70;;;10.20;;
62151;SDS011;48139;47.474;19.034;2023-12-04T06:12:46;21.83;;;10.57;;
62151;SDS011;48139;47.474;19.034;2023-12-04T06:15:49;26.73;;;11.10;;
62151;SDS011;48139;47.474;19.034;2023-12-04T06:18:52;22.17;;;11.68;;
62151;SDS011;48139;47.474;19.034;2023-12-04T06:21:55;24.73;;;12.98;;
62151;SDS011;48139;47.474;19.034;2023-12-04T06:24:58;21.73;;;10.93;;
62151;SDS011;48139;47.474;19.034;2023-12-04T06:28:01;18.33;;;10.57;;
62151;SDS011;48139;47.474;19.034;2023-12-04T06:31:04;23.30;;;11.75;;
62151;SDS011;48139;47.474;19.034;2023-12-04T06:34:08;20.23;;;12.65;;
62151;SDS011;48139;47.474;19.034;2023-12-04T06:37:12;21.62;;;12.73;;
62151;SDS011;48139;47.474;19.034;2023-12-04T06:40:16;19.95;;;10.30;;
62151;SDS011;48139;47.474;19.034;2023-12-04T06:43:19;21.55;;;10.75;;
62151;SDS011;48139;47.474;19.034;2023-12-04T06:46:23;25.17;;;13.85;;
62151;SDS011;48139;47.474;19.034;2023-12-04T06:49:30;23.00;;;12.40;;
62151;SDS011;48139;47.474;19.034;2023-12-04T06:52:34;21.10;;;12.35;;
62151;SDS011;48139;47.474;19.034;2023-12-04T06:55:37;19.33;;;11.17;;
62151;SDS011;48139;47.474;19.034;2023-12-04T06:58:40;24.67;;;12.40;;
62151;SDS011;48139;47.474;19.034;2023-12-04T07:01:42;24.67;;;12.60;;
62151;SDS011;48139;47.474;19.034;2023-12-04T07:04:46;16.17;;;11.25;;
62151;SDS011;48139;47.474;19.034;2023-12-04T07:07:49;20.83;;;9.93;;
62151;SDS011;48139;47.474;19.034;2023-12-04T07:10:52;19.02;;;9.90;;
62151;SDS011;48139;47.474;19.034;2023-12-04T07:13:55;16.10;;;10.13;;
62151;SDS011;48139;47.474;19.034;2023-12-04T07:20:02;18.40;;;9.90;;
62151;SDS011;48139;47.474;19.034;2023-12-04T07:23:06;17.95;;;11.20;;
62151;SDS011;48139;47.474;19.034;2023-12-04T07:26:11;21.20;;;11.45;;
62151;SDS011;48139;47.474;19.034;2023-12-04T07:29:14;21.20;;;12.60;;
62151;SDS011;48139;47.474;19.034;2023-12-04T07:32:17;17.40;;;9.43;;
62151;SDS011;48139;47.474;19.034;2023-12-04T07:35:22;29.83;;;14.30;;
62151;SDS011;48139;47.474;19.034;2023-12-04T07:38:25;16.83;;;10.13;;
62151;SDS011;48139;47.474;19.034;2023-12-04T07:41:31;21.08;;;11.40;;
62151;SDS011;48139;47.474;19.034;2023-12-04T07:44:33;16.45;;;10.85;;
62151;SDS011;48139;47.474;19.034;2023-12-04T07:47:36;26.45;;;13.45;;
62151;SDS011;48139;47.474;19.034;2023-12-04T07:50:39;20.70;;;12.23;;
62151;SDS011;48139;47.474;19.034;2023-12-04T07:53:42;25.90;;;11.85;;
62151;SDS011;48139;47.474;19.034;2023-12-04T07:56:45;26.80;;;13.00;;
62151;SDS011;48139;47.474;19.034;2023-12-04T07:59:48;20.15;;;10.45;;
62151;SDS011;48139;47.474;19.034;2023-12-04T08:02:53;18.62;;;11.38;;
62151;SDS011;48139;47.474;19.034;2023-12-04T08:05:56;18.45;;;11.75;;
62151;SDS011;48139;47.474;19.034;2023-12-04T08:09:00;21.02;;;12.23;;
62151;SDS011;48139;47.474;19.034;2023-12-04T08:12:03;24.85;;;13.60;;
62151;SDS011;48139;47.474;19.034;2023-12-04T08:15:06;21.83;;;12.37;;
62151;SDS011;48139;47.474;19.034;2023-12-04T08:18:10;19.27;;;13.98;;
62151;SDS011;48139;47.474;19.034;2023-12-04T08:21:12;19.47;;;10.53;;
62151;SDS011;48139;47.474;19.034;2023-12-04T08:24:16;18.77;;;10.38;;
62151;SDS011;48139;47.474;19.034;2023-12-04T08:27:20;21.30;;;10.50;;
62151;SDS011;48139;47.474;19.034;2023-12-04T08:30:23;20.47;;;13.57;;
62151;SDS011;48139;47.474;19.034;2023-12-04T08:33:25;18.80;;;11.12;;
62151;SDS011;48139;47.474;19.034;2023-12-04T08:36:28;16.30;;;10.00;;
62151;SDS011;48139;47.474;19.034;2023-12-04T08:39:45;23.42;;;12.15;;
62151;SDS011;48139;47.474;19.034;2023-12-04T08:42:48;17.92;;;10.95;;
62151;SDS011;48139;47.474;19.034;2023-12-04T08:45:51;22.47;;;12.10;;
62151;SDS011;48139;47.474;19.034;2023-12-04T08:48:54;23.42;;;12.85;;
62151;SDS011;48139;47.474;19.034;2023-12-04T08:51:57;20.00;;;13.00;;
62151;SDS011;48139;47.474;19.034;2023-12-04T08:55:00;18.58;;;11.60;;
62151;SDS011;48139;47.474;19.034;2023-12-04T08:58:04;16.42;;;11.23;;
62151;SDS011;48139;47.474;19.034;2023-12-04T09:01:07;22.08;;;13.40;;
62151;SDS011;48139;47.474;19.034;2023-12-04T09:04:10;20.92;;;11.93;;
62151;SDS011;48139;47.474;19.034;2023-12-04T09:07:13;20.85;;;13.55;;
62151;SDS011;48139;47.474;19.034;2023-12-04T09:10:19;19.20;;;13.18;;
62151;SDS011;48139;47.474;19.034;2023-12-04T09:13:42;25.90;;;12.75;;
62151;SDS011;48139;47.474;19.034;2023-12-04T09:16:45;27.20;;;13.60;;
62151;SDS011;48139;47.474;19.034;2023-12-04T09:19:48;21.85;;;12.73;;
62151;SDS011;48139;47.474;19.034;2023-12-04T09:22:51;24.10;;;13.52;;
62151;SDS011;48139;47.474;19.034;2023-12-04T09:26:02;22.00;;;13.23;;
62151;SDS011;48139;47.474;19.034;2023-12-04T09:29:04;19.10;;;11.68;;
62151;SDS011;48139;47.474;19.034;2023-12-04T09:32:07;19.60;;;10.57;;
62151;SDS011;48139;47.474;19.034;2023-12-04T09:35:10;22.65;;;10.82;;
62151;SDS011;48139;47.474;19.034;2023-12-04T09:38:13;19.55;;;11.60;;
62151;SDS011;48139;47.474;19.034;2023-12-04T09:41:16;16.73;;;9.30;;
62151;SDS011;48139;47.474;19.034;2023-12-04T09:44:19;16.95;;;8.80;;
62151;SDS011;48139;47.474;19.034;2023-12-04T09:47:22;21.17;;;10.20;;
62151;SDS011;48139;47.474;19.034;2023-12-04T09:50:25;14.50;;;8.90;;
62151;SDS011;48139;47.474;19.034;2023-12-04T09:53:28;15.47;;;8.23;;
62151;SDS011;48139;47.474;19.034;2023-12-04T09:56:34;15.68;;;9.73;;
62151;SDS011;48139;47.474;19.034;2023-12-04T09:59:37;14.27;;;7.30;;
62151;SDS011;48139;47.474;19.034;2023-12-04T10:02:40;16.87;;;10.23;;
62151;SDS011;48139;47.474;19.034;2023-12-04T10:05:44;16.05;;;9.25;;
62151;SDS011;48139;47.474;19.034;2023-12-04T10:08:50;16.52;;;9.32;;
62151;SDS011;48139;47.474;19.034;2023-12-04T10:11:55;14.82;;;10.10;;
62151;SDS011;48139;47.474;19.034;2023-12-04T10:15:05;14.07;;;8.93;;
62151;SDS011;48139;47.474;19.034;2023-12-04T10:18:17;13.75;;;7.97;;
62151;SDS011;48139;47.474;19.034;2023-12-04T10:21:34;15.68;;;8.07;;
62151;SDS011;48139;47.474;19.034;2023-12-04T10:24:38;21.20;;;10.65;;
62151;SDS011;48139;47.474;19.034;2023-12-04T10:27:41;15.63;;;9.13;;
62151;SDS011;48139;47.474;19.034;2023-12-04T10:30:44;20.23;;;11.40;;
62151;SDS011;48139;47.474;19.034;2023-12-04T10:33:48;16.05;;;9.40;;
62151;SDS011;48139;47.474;19.034;2023-12-04T10:36:52;18.83;;;9.45;;
62151;SDS011;48139;47.474;19.034;2023-12-04T10:39:55;15.57;;;9.20;;
62151;SDS011;48139;47.474;19.034;2023-12-04T10:43:12;14.20;;;6.75;;
62151;SDS011;48139;47.474;19.034;2023-12-04T10:46:19;14.52;;;8.30;;
62151;SDS011;48139;47.474;19.034;2023-12-04T10:49:25;13.88;;;7.90;;
62151;SDS011;48139;47.474;19.034;2023-12-04T10:52:30;12.48;;;8.52;;
62151;SDS011;48139;47.474;19.034;2023-12-04T10:55:35;14.13;;;9.60;;
62151;SDS011;48139;47.474;19.034;2023-12-04T10:58:39;14.15;;;7.85;;
62151;SDS011;48139;47.474;19.034;2023-12-04T11:01:44;12.10;;;6.85;;
62151;SDS011;48139;47.474;19.034;2023-12-04T11:04:49;13.20;;;7.68;;
62151;SDS011;48139;47.474;19.034;2023-12-04T11:07:57;12.05;;;6.85;;
62151;SDS011;48139;47.474;19.034;2023-12-04T11:11:20;13.73;;;7.47;;
62151;SDS011;48139;47.474;19.034;2023-12-04T11:14:31;13.65;;;7.32;;
62151;SDS011;48139;47.474;19.034;2023-12-04T11:17:42;11.98;;;7.07;;
62151;SDS011;48139;47.474;19.034;2023-12-04T11:20:59;11.00;;;5.93;;
62151;SDS011;48139;47.474;19.034;2023-12-04T11:24:08;12.82;;;7.53;;
62151;SDS011;48139;47.474;19.034;2023-12-04T11:27:12;12.07;;;6.65;;
62151;SDS011;48139;47.474;19.034;2023-12-04T11:30:16;11.75;;;6.43;;
62151;SDS011;48139;47.474;19.034;2023-12-04T11:33:20;12.75;;;6.90;;
62151;SDS011;48139;47.474;19.034;2023-12-04T11:36:23;15.10;;;8.80;;
62151;SDS011;48139;47.474;19.034;2023-12-04T11:39:26;11.23;;;7.40;;
62151;SDS011;48139;47.474;19.034;2023-12-04T11:42:30;11.67;;;6.33;;
62151;SDS011;48139;47.474;19.034;2023-12-04T11:45:33;15.73;;;8.88;;
62151;SDS011;48139;47.474;19.034;2023-12-04T11:48:42;12.25;;;7.15;;
62151;SDS011;48139;47.474;19.034;2023-12-04T11:51:45;11.45;;;6.65;;
62151;SDS011;48139;47.474;19.034;2023-12-04T11:54:57;9.65;;;5.85;;
62151;SDS011;48139;47.474;19.034;2023-12-04T11:58:02;11.25;;;5.57;;
62151;SDS011;48139;47.474;19.034;2023-12-04T12:01:11;11.30;;;6.68;;
62151;SDS011;48139;47.474;19.034;2023-12-04T12:07:19;9.98;;;6.28;;
62151;SDS011;48139;47.474;19.034;2023-12-04T12:13:25;10.25;;;6.28;;
62151;SDS011;48139;47.474;19.034;2023-12-04T12:16:30;9.27;;;6.53;;
62151;SDS011;48139;47.474;19.034;2023-12-04T12:19:34;12.27;;;6.90;;
62151;SDS011;48139;47.474;19.034;2023-12-04T12:22:37;10.50;;;6.05;;
62151;SDS011;48139;47.474;19.034;2023-12-04T12:25:43;13.62;;;6.18;;
62151;SDS011;48139;47.474;19.034;2023-12-04T12:28:46;11.50;;;6.30;;
62151;SDS011;48139;47.474;19.034;2023-12-04T12:31:49;11.00;;;7.15;;
62151;SDS011;48139;47.474;19.034;2023-12-04T12:34:53;11.15;;;6.40;;
62151;SDS011;48139;47.474;19.034;2023-12-04T12:37:58;13.40;;;6.78;;
62151;SDS011;48139;47.474;19.034;2023-12-04T12:41:01;16.23;;;7.78;;
62151;SDS011;48139;47.474;19.034;2023-12-04T12:44:08;12.75;;;6.82;;
62151;SDS011;48139;47.474;19.034;2023-12-04T12:47:14;11.18;;;6.72;;
62151;SDS011;48139;47.474;19.034;2023-12-04T12:50:17;12.95;;;6.90;;
62151;SDS011;48139;47.474;19.034;2023-12-04T12:53:25;11.57;;;6.57;;
62151;SDS011;48139;47.474;19.034;2023-12-04T12:56:27;11.57;;;6.78;;
62151;SDS011;48139;47.474;19.034;2023-12-04T12:59:30;10.00;;;5.62;;
62151;SDS011;48139;47.474;19.034;2023-12-04T13:02:34;12.43;;;6.03;;
62151;SDS011;48139;47.474;19.034;2023-12-04T13:05:38;11.55;;;6.75;;
62151;SDS011;48139;47.474;19.034;2023-12-04T13:08:41;14.77;;;8.27;;
62151;SDS011;48139;47.474;19.034;2023-12-04T13:11:47;11.30;;;5.72;;
62151;SDS011;48139;47.474;19.034;2023-12-04T13:14:51;14.63;;;7.32;;
62151;SDS011;48139;47.474;19.034;2023-12-04T13:17:54;13.40;;;7.83;;
62151;SDS011;48139;47.474;19.034;2023-12-04T13:20:56;13.88;;;6.40;;
62151;SDS011;48139;47.474;19.034;2023-12-04T13:24:00;11.00;;;6.70;;
62151;SDS011;48139;47.474;19.034;2023-12-04T13:27:03;14.10;;;6.70;;
62151;SDS011;48139;47.474;19.034;2023-12-04T13:30:06;11.70;;;6.15;;
62151;SDS011;48139;47.474;19.034;2023-12-04T13:33:10;12.57;;;6.35;;
62151;SDS011;48139;47.474;19.034;2023-12-04T13:36:13;12.48;;;6.18;;
62151;SDS011;48139;47.474;19.034;2023-12-04T13:39:16;13.27;;;6.70;;
62151;SDS011;48139;47.474;19.034;2023-12-04T13:42:19;11.98;;;6.12;;
62151;SDS011;48139;47.474;19.034;2023-12-04T13:45:41;13.18;;;7.60;;
62151;SDS011;48139;47.474;19.034;2023-12-04T13:48:43;13.43;;;8.23;;
62151;SDS011;48139;47.474;19.034;2023-12-04T13:51:46;13.27;;;6.67;;
62151;SDS011;48139;47.474;19.034;2023-12-04T13:54:52;22.08;;;9.73;;
62151;SDS011;48139;47.474;19.034;2023-12-04T13:57:56;13.00;;;7.82;;
62151;SDS011;48139;47.474;19.034;2023-12-04T14:01:02;13.48;;;7.60;;
62151;SDS011;48139;47.474;19.034;2023-12-04T14:04:15;13.27;;;7.28;;
62151;SDS011;48139;47.474;19.034;2023-12-04T14:07:18;14.27;;;7.50;;
62151;SDS011;48139;47.474;19.034;2023-12-04T14:10:22;13.57;;;7.40;;
62151;SDS011;48139;47.474;19.034;2023-12-04T14:13:25;11.65;;;5.97;;
62151;SDS011;48139;47.474;19.034;2023-12-04T14:16:28;11.45;;;7.00;;
62151;SDS011;48139;47.474;19.034;2023-12-04T14:19:31;12.85;;;6.05;;
62151;SDS011;48139;47.474;19.034;2023-12-04T14:22:34;14.20;;;7.90;;
62151;SDS011;48139;47.474;19.034;2023-12-04T14:25:37;16.60;;;6.72;;
62151;SDS011;48139;47.474;19.034;2023-12-04T14:28:40;13.77;;;8.48;;
62151;SDS011;48139;47.474;19.034;2023-12-04T14:31:44;12.20;;;7.22;;
62151;SDS011;48139;47.474;19.034;2023-12-04T14:34:47;10.15;;;7.18;;
62151;SDS011;48139;47.474;19.034;2023-12-04T14:37:50;19.03;;;10.73;;
62151;SDS011;48139;47.474;19.034;2023-12-04T14:40:53;15.38;;;7.22;;
62151;SDS011;48139;47.474;19.034;2023-12-04T14:43:56;15.57;;;8.82;;
62151;SDS011;48139;47.474;19.034;2023-12-04T14:46:59;14.60;;;7.00;;
62151;SDS011;48139;47.474;19.034;2023-12-04T14:50:02;14.93;;;7.62;;
62151;SDS011;48139;47.474;19.034;2023-12-04T14:53:07;12.13;;;7.25;;
62151;SDS011;48139;47.474;19.034;2023-12-04T14:56:30;14.13;;;7.28;;
62151;SDS011;48139;47.474;19.034;2023-12-04T14:59:39;16.37;;;8.75;;
62151;SDS011;48139;47.474;19.034;2023-12-04T15:03:00;16.77;;;8.25;;
62151;SDS011;48139;47.474;19.034;2023-12-04T15:06:18;16.42;;;8.45;;
62151;SDS011;48139;47.474;19.034;2023-12-04T15:09:41;11.80;;;7.20;;
62151;SDS011;48139;47.474;19.034;2023-12-04T15:13:03;14.43;;;8.23;;
62151;SDS011;48139;47.474;19.034;2023-12-04T15:16:37;15.40;;;8.60;;
62151;SDS011;48139;47.474;19.034;2023-12-04T15:20:06;15.15;;;7.97;;
62151;SDS011;48139;47.474;19.034;2023-12-04T15:23:12;16.23;;;8.48;;
62151;SDS011;48139;47.474;19.034;2023-12-04T15:29:19;18.40;;;8.63;;
62151;SDS011;48139;47.474;19.034;2023-12-04T15:32:23;16.08;;;8.77;;
62151;SDS011;48139;47.474;19.034;2023-12-04T15:35:25;14.73;;;8.17;;
62151;SDS011;48139;47.474;19.034;2023-12-04T15:38:28;16.92;;;9.00;;
62151;SDS011;48139;47.474;19.034;2023-12-04T15:41:34;13.82;;;8.65;;
62151;SDS011;48139;47.474;19.034;2023-12-04T15:44:37;16.42;;;9.40;;
62151;SDS011;48139;47.474;19.034;2023-12-04T15:47:41;14.65;;;7.93;;
62151;SDS011;48139;47.474;19.034;2023-12-04T15:50:44;14.80;;;8.60;;
62151;SDS011;48139;47.474;19.034;2023-12-04T15:53:46;18.80;;;10.17;;
62151;SDS011;48139;47.474;19.034;2023-12-04T15:56:50;16.80;;;9.93;;
62151;SDS011;48139;47.474;19.034;2023-12-04T15:59:53;16.03;;;8.87;;
62151;SDS011;48139;47.474;19.034;2023-12-04T16:02:56;15.90;;;9.57;;
62151;SDS011;48139;47.474;19.034;2023-12-04T16:06:00;13.60;;;8.27;;
62151;SDS011;48139;47.474;19.034;2023-12-04T16:09:03;22.15;;;10.15;;
62151;SDS011;48139;47.474;19.034;2023-12-04T16:12:06;19.05;;;9.32;;
62151;SDS011;48139;47.474;19.034;2023-12-04T16:15:11;13.88;;;9.30;;
62151;SDS011;48139;47.474;19.034;2023-12-04T16:18:15;18.17;;;10.65;;
62151;SDS011;48139;47.474;19.034;2023-12-04T16:21:18;18.77;;;10.52;;
62151;SDS011;48139;47.474;19.034;2023-12-04T16:24:22;18.80;;;11.23;;
62151;SDS011;48139;47.474;19.034;2023-12-04T16:27:25;20.62;;;10.13;;
62151;SDS011;48139;47.474;19.034;2023-12-04T16:30:28;17.92;;;9.95;;
62151;SDS011;48139;47.474;19.034;2023-12-04T16:33:31;16.50;;;9.30;;
62151;SDS011;48139;47.474;19.034;2023-12-04T16:36:34;16.42;;;8.45;;
62151;SDS011;48139;47.474;19.034;2023-12-04T16:39:37;15.45;;;10.55;;
62151;SDS011;48139;47.474;19.034;2023-12-04T16:42:40;17.33;;;7.50;;
62151;SDS011;48139;47.474;19.034;2023-12-04T16:45:43;17.20;;;7.80;;
62151;SDS011;48139;47.474;19.034;2023-12-04T16:48:47;19.05;;;8.43;;
62151;SDS011;48139;47.474;19.034;2023-12-04T16:51:50;14.90;;;8.77;;
62151;SDS011;48139;47.474;19.034;2023-12-04T16:57:57;15.63;;;7.83;;
